Time;durP1;ratioP1;P1;durP2;ratioP2;P2;SDS_P1;SDS_P2;PMS_P1;PMS_P2;Temp;Humidity;BMP_temperature;BMP_pressure;BME280_temperature;BME280_humidity;BME280_pressure;Samples;Min_cycle;Max_cycle;Signal;HPM_P1;HPM_P2
2023/06/14 00:01:34;;;;;;;;;;;25.50;41.80;;;;;;5072189;28;19909;-53
2023/06/14 00:04:01;;;;;;;;;;;25.50;41.60;;;;;;5063590;28;19993;-53
2023/06/14 00:06:27;;;;;;;;;;;25.50;41.90;;;;;;5077677;28;19912;-53
2023/06/14 00:08:54;;;;;;;;;;;25.50;41.90;;;;;;5079029;28;19923;-54
2023/06/14 00:11:19;;;;;;;;;;;25.50;41.80;;;;;;5070985;28;19978;-53
2023/06/14 00:13:45;;;;;;;;;;;25.50;41.90;;;;;;5057651;28;20389;-53
2023/06/14 00:16:11;;;;;;;;;;;25.60;41.60;;;;;;5053040;28;19916;-53
2023/06/14 00:18:36;;;;;;;;;;;25.60;41.60;;;;;;5056411;28;20087;-54
2023/06/14 00:21:03;;;;;;;;;;;25.60;41.40;;;;;;5069025;28;20284;-54
2023/06/14 00:23:29;;;;;;;;;;;25.60;41.60;;;;;;5059728;28;20337;-53
2023/06/14 00:25:55;;;;;;;;;;;25.50;41.70;;;;;;5068210;28;19934;-53
2023/06/14 00:28:20;;;;;;;;;;;25.50;41.80;;;;;;5072988;28;20295;-53
2023/06/14 00:30:46;;;;;;;;;;;25.40;41.90;;;;;;5072537;28;19912;-53
2023/06/14 00:33:12;;;;;;;;;;;25.50;41.70;;;;;;5062453;28;20015;-53
2023/06/14 00:35:37;;;;;;;;;;;25.50;41.60;;;;;;5064385;28;19958;-53
2023/06/14 00:38:03;;;;;;;;;;;25.50;41.60;;;;;;5069293;28;19912;-54
2023/06/14 00:40:28;;;;;;;;;;;25.60;41.40;;;;;;5099996;28;19998;-53
2023/06/14 00:42:54;;;;;;;;;;;25.60;41.70;;;;;;5061184;28;20387;-53
2023/06/14 00:45:19;;;;;;;;;;;25.50;41.60;;;;;;5071022;28;20288;-53
2023/06/14 00:47:45;;;;;;;;;;;25.60;41.70;;;;;;5057219;28;19917;-53
2023/06/14 00:50:11;;;;;;;;;;;25.50;41.60;;;;;;5067607;28;20322;-53
2023/06/14 00:52:36;;;;;;;;;;;25.50;41.60;;;;;;5099748;28;20246;-54
2023/06/14 00:55:02;;;;;;;;;;;25.50;41.40;;;;;;5067126;28;19917;-53
2023/06/14 00:57:29;;;;;;;;;;;25.50;41.70;;;;;;5095752;28;20287;-53
2023/06/14 00:59:55;;;;;;;;;;;25.50;41.60;;;;;;5071016;28;19912;-53
2023/06/14 01:02:20;;;;;;;;;;;25.50;41.60;;;;;;5066626;28;20020;-53
2023/06/14 01:04:47;;;;;;;;;;;25.50;41.80;;;;;;5063984;28;20046;-53
2023/06/14 01:07:32;;;;;;;;;;;25.50;41.70;;;;;;5063884;28;19955;-54
2023/06/14 01:10:05;;;;;;;;;;;25.40;41.70;;;;;;5071755;28;19913;-53
2023/06/14 01:12:39;;;;;;;;;;;25.50;41.80;;;;;;5067045;28;19916;-54
2023/06/14 01:15:04;;;;;;;;;;;25.40;41.70;;;;;;5104802;28;19919;-53
2023/06/14 01:17:31;;;;;;;;;;;25.50;41.80;;;;;;5070829;28;19909;-53
2023/06/14 01:20:06;;;;;;;;;;;25.40;42.50;;;;;;5064102;28;19912;-53
2023/06/14 01:22:32;;;;;;;;;;;25.40;41.80;;;;;;5070554;28;19909;-53
2023/06/14 01:24:57;;;;;;;;;;;25.40;41.80;;;;;;5069962;28;19990;-53
2023/06/14 01:27:29;;;;;;;;;;;25.40;41.90;;;;;;5072541;28;19916;-54
2023/06/14 01:29:56;;;;;;;;;;;25.40;41.90;;;;;;5072069;28;19912;-53
2023/06/14 01:32:23;;;;;;;;;;;25.40;41.80;;;;;;5067157;28;19944;-53
2023/06/14 01:34:48;;;;;;;;;;;25.40;41.80;;;;;;5060987;28;19920;-53
2023/06/14 01:37:13;;;;;;;;;;;25.30;42.00;;;;;;5063386;28;19916;-53
2023/06/14 01:39:39;;;;;;;;;;;25.30;42.30;;;;;;5067015;28;19924;-54
2023/06/14 01:42:06;;;;;;;;;;;25.30;42.20;;;;;;5071728;28;19916;-53
2023/06/14 01:44:31;;;;;;;;;;;25.30;42.20;;;;;;5069059;28;19920;-53
2023/06/14 01:46:57;;;;;;;;;;;25.20;42.30;;;;;;5068725;28;19913;-53
2023/06/14 01:49:23;;;;;;;;;;;25.20;42.20;;;;;;5056281;28;19923;-54
2023/06/14 01:51:48;;;;;;;;;;;25.30;42.30;;;;;;5073803;28;19917;-53
2023/06/14 01:54:13;;;;;;;;;;;25.30;42.30;;;;;;5058549;28;19917;-53
2023/06/14 01:56:39;;;;;;;;;;;25.30;42.30;;;;;;5062744;28;19927;-53
2023/06/14 01:59:04;;;;;;;;;;;25.30;41.90;;;;;;5072069;28;19972;-53
2023/06/14 02:01:30;;;;;;;;;;;25.30;41.90;;;;;;5067385;28;19917;-54
2023/06/14 02:03:56;;;;;;;;;;;25.30;42.20;;;;;;5075508;28;19909;-54
2023/06/14 02:06:21;;;;;;;;;;;25.30;42.00;;;;;;5071016;28;20007;-53
2023/06/14 02:08:46;;;;;;;;;;;25.30;41.90;;;;;;5058390;28;19913;-53
2023/06/14 02:11:12;;;;;;;;;;;25.30;42.10;;;;;;5054469;28;19923;-53
2023/06/14 02:13:37;;;;;;;;;;;25.30;42.10;;;;;;5053952;28;19955;-54
2023/06/14 02:16:03;;;;;;;;;;;25.30;42.20;;;;;;5070099;28;20276;-53
2023/06/14 02:18:28;;;;;;;;;;;25.30;42.30;;;;;;5075605;28;19978;-53
2023/06/14 02:20:54;;;;;;;;;;;25.20;42.40;;;;;;5088108;28;19995;-54
2023/06/14 02:23:20;;;;;;;;;;;25.20;42.40;;;;;;5070347;28;20012;-53
2023/06/14 02:25:45;;;;;;;;;;;25.20;42.30;;;;;;5054478;28;19932;-53
2023/06/14 02:28:11;;;;;;;;;;;25.20;42.30;;;;;;5085165;28;19961;-53
2023/06/14 02:30:36;;;;;;;;;;;25.30;42.30;;;;;;5075185;28;19913;-53
2023/06/14 02:33:02;;;;;;;;;;;25.30;42.00;;;;;;5074187;28;19916;-53
2023/06/14 02:35:29;;;;;;;;;;;25.30;42.20;;;;;;5074652;28;20422;-53
2023/06/14 02:37:54;;;;;;;;;;;25.30;42.30;;;;;;5074846;28;19912;-54
2023/06/14 02:40:20;;;;;;;;;;;25.20;42.30;;;;;;5089758;28;20088;-53
2023/06/14 02:42:46;;;;;;;;;;;25.20;42.30;;;;;;5073472;28;19912;-53
2023/06/14 02:45:11;;;;;;;;;;;25.20;42.30;;;;;;5104861;28;19990;-53
2023/06/14 02:47:36;;;;;;;;;;;25.20;42.30;;;;;;5073506;28;19913;-53
2023/06/14 02:50:02;;;;;;;;;;;25.10;42.50;;;;;;5074704;28;19908;-53
2023/06/14 02:52:28;;;;;;;;;;;25.10;42.50;;;;;;5057857;28;19916;-53
2023/06/14 02:54:54;;;;;;;;;;;25.10;42.60;;;;;;5064541;28;19921;-53
2023/06/14 02:57:19;;;;;;;;;;;25.20;42.60;;;;;;5070182;28;19920;-53
2023/06/14 02:59:45;;;;;;;;;;;25.10;42.50;;;;;;5074791;28;19996;-53
2023/06/14 03:02:10;;;;;;;;;;;25.10;42.10;;;;;;5074727;28;19912;-54
2023/06/14 03:04:37;;;;;;;;;;;25.10;42.70;;;;;;5102546;28;19923;-54
2023/06/14 03:07:08;;;;;;;;;;;25.10;42.40;;;;;;5069090;28;20395;-53
2023/06/14 03:09:37;;;;;;;;;;;25.10;42.60;;;;;;5075156;28;20019;-53
2023/06/14 03:12:03;;;;;;;;;;;25.10;42.50;;;;;;5070215;28;20376;-53
2023/06/14 03:14:30;;;;;;;;;;;25.10;42.50;;;;;;5054039;28;20335;-53
2023/06/14 03:16:56;;;;;;;;;;;25.10;42.20;;;;;;5070707;28;19964;-53
2023/06/14 03:19:22;;;;;;;;;;;25.10;42.60;;;;;;5062144;28;19935;-53
2023/06/14 03:21:47;;;;;;;;;;;25.10;42.50;;;;;;5065878;28;20436;-53
2023/06/14 03:24:13;;;;;;;;;;;25.10;42.80;;;;;;5062712;28;19923;-53
2023/06/14 03:26:38;;;;;;;;;;;25.10;42.90;;;;;;5066647;28;19967;-53
2023/06/14 03:29:04;;;;;;;;;;;25.00;42.80;;;;;;5068801;28;19955;-53
2023/06/14 03:31:32;;;;;;;;;;;25.00;43.00;;;;;;5073718;28;19920;-54
2023/06/14 03:33:58;;;;;;;;;;;25.00;43.10;;;;;;5105916;28;19917;-53
2023/06/14 03:36:23;;;;;;;;;;;25.00;43.00;;;;;;5069353;28;20434;-53
2023/06/14 03:38:49;;;;;;;;;;;25.00;43.20;;;;;;5073901;28;20329;-53
2023/06/14 03:41:14;;;;;;;;;;;24.90;43.10;;;;;;5072890;28;19912;-53
2023/06/14 03:43:40;;;;;;;;;;;25.00;43.10;;;;;;5073260;28;19967;-53
2023/06/14 03:46:05;;;;;;;;;;;25.00;43.10;;;;;;5067560;28;20368;-53
2023/06/14 03:48:31;;;;;;;;;;;25.00;43.20;;;;;;5066354;28;19952;-53
2023/06/14 03:50:56;;;;;;;;;;;25.00;43.10;;;;;;5070128;28;19908;-53
2023/06/14 03:53:23;;;;;;;;;;;25.00;43.10;;;;;;5062172;28;19950;-53
2023/06/14 03:55:49;;;;;;;;;;;25.00;43.20;;;;;;5058808;28;20365;-52
2023/06/14 03:58:15;;;;;;;;;;;25.00;43.10;;;;;;5054418;28;19919;-53
2023/06/14 04:00:40;;;;;;;;;;;25.00;43.20;;;;;;5059169;28;19935;-53
2023/06/14 04:03:06;;;;;;;;;;;25.00;43.20;;;;;;5073514;28;20289;-52
2023/06/14 04:05:31;;;;;;;;;;;25.00;43.10;;;;;;5070263;28;19999;-52
2023/06/14 04:07:58;;;;;;;;;;;25.00;43.40;;;;;;5048748;28;19912;-54
2023/06/14 04:10:24;;;;;;;;;;;25.00;43.20;;;;;;5053257;28;20007;-54
2023/06/14 04:12:50;;;;;;;;;;;25.00;43.40;;;;;;5073058;28;20007;-54
2023/06/14 04:15:16;;;;;;;;;;;25.00;43.50;;;;;;5071050;28;20007;-53
2023/06/14 04:17:41;;;;;;;;;;;24.90;43.60;;;;;;5072704;28;20349;-53
2023/06/14 04:20:09;;;;;;;;;;;24.90;43.70;;;;;;5071218;28;19908;-53
2023/06/14 04:22:34;;;;;;;;;;;24.90;43.80;;;;;;5059368;28;19934;-53
2023/06/14 04:25:00;;;;;;;;;;;24.90;44.00;;;;;;5050965;28;20420;-53
2023/06/14 04:27:25;;;;;;;;;;;24.90;43.80;;;;;;5085189;28;19913;-53
2023/06/14 04:29:53;;;;;;;;;;;24.90;43.70;;;;;;5084715;28;19913;-53
2023/06/14 04:32:18;;;;;;;;;;;25.00;44.00;;;;;;5064929;28;19921;-53
2023/06/14 04:34:44;;;;;;;;;;;24.90;44.70;;;;;;5064029;28;19971;-54
2023/06/14 04:37:09;;;;;;;;;;;24.90;43.90;;;;;;5071179;28;19920;-53
2023/06/14 04:39:35;;;;;;;;;;;25.00;44.00;;;;;;5071683;28;19916;-54
2023/06/14 04:42:00;;;;;;;;;;;24.90;44.00;;;;;;5069030;28;19913;-53
2023/06/14 04:44:29;;;;;;;;;;;24.90;44.00;;;;;;5064506;28;20047;-54
2023/06/14 04:46:58;;;;;;;;;;;24.90;44.00;;;;;;5061516;28;19917;-54
2023/06/14 04:49:24;;;;;;;;;;;25.00;44.10;;;;;;5057243;28;19917;-55
2023/06/14 04:51:57;;;;;;;;;;;25.00;44.10;;;;;;5064932;28;20365;-55
2023/06/14 04:54:24;;;;;;;;;;;25.00;44.10;;;;;;5066607;28;20349;-54
2023/06/14 04:56:50;;;;;;;;;;;25.00;44.10;;;;;;5071270;28;19916;-54
2023/06/14 04:59:17;;;;;;;;;;;25.00;44.10;;;;;;5064975;28;19912;-54
2023/06/14 05:01:48;;;;;;;;;;;25.00;44.10;;;;;;5060612;28;20010;-54
2023/06/14 05:04:14;;;;;;;;;;;25.00;44.10;;;;;;5073058;28;19960;-54
2023/06/14 05:06:40;;;;;;;;;;;25.00;44.20;;;;;;5057776;28;19924;-54
2023/06/14 05:09:05;;;;;;;;;;;25.00;44.30;;;;;;5057225;28;20288;-54
2023/06/14 05:11:31;;;;;;;;;;;25.00;44.20;;;;;;5056987;28;19924;-54
2023/06/14 05:13:58;;;;;;;;;;;25.10;44.20;;;;;;5062447;28;20386;-54
2023/06/14 05:16:25;;;;;;;;;;;25.00;44.30;;;;;;5082301;28;20237;-54
2023/06/14 05:18:50;;;;;;;;;;;25.10;44.40;;;;;;5059517;28;20289;-54
2023/06/14 05:21:19;;;;;;;;;;;25.10;44.40;;;;;;5060676;28;19917;-54
2023/06/14 05:23:45;;;;;;;;;;;25.10;44.30;;;;;;5060020;28;19912;-54
2023/06/14 05:26:10;;;;;;;;;;;25.10;44.40;;;;;;5066942;28;19913;-54
2023/06/14 05:28:36;;;;;;;;;;;25.10;44.20;;;;;;5067770;28;20331;-54
2023/06/14 05:31:01;;;;;;;;;;;25.00;44.30;;;;;;5070358;28;19913;-54
2023/06/14 05:33:27;;;;;;;;;;;25.10;44.20;;;;;;5064130;28;19965;-54
2023/06/14 05:35:52;;;;;;;;;;;25.10;44.20;;;;;;5061330;28;19912;-55
2023/06/14 05:38:18;;;;;;;;;;;25.10;44.40;;;;;;5094731;28;19923;-55
2023/06/14 05:40:43;;;;;;;;;;;25.10;44.40;;;;;;5051502;28;19948;-54
2023/06/14 05:43:09;;;;;;;;;;;25.10;44.50;;;;;;5059483;28;19926;-54
2023/06/14 05:45:34;;;;;;;;;;;25.10;44.40;;;;;;5058590;28;19963;-54
2023/06/14 05:48:00;;;;;;;;;;;25.00;44.40;;;;;;5062251;28;19913;-54
2023/06/14 05:50:25;;;;;;;;;;;25.10;44.30;;;;;;5055806;28;20344;-54
2023/06/14 05:52:51;;;;;;;;;;;25.10;44.20;;;;;;5059975;28;20288;-54
2023/06/14 05:55:16;;;;;;;;;;;25.10;44.30;;;;;;5063480;28;20016;-54
2023/06/14 05:57:42;;;;;;;;;;;25.10;44.30;;;;;;5060494;28;20006;-53
2023/06/14 06:00:26;;;;;;;;;;;25.10;44.40;;;;;;5067334;28;19913;-54
2023/06/14 06:02:52;;;;;;;;;;;25.10;44.40;;;;;;5058839;28;19917;-54
2023/06/14 06:05:17;;;;;;;;;;;25.10;44.40;;;;;;5066762;28;19920;-54
2023/06/14 06:07:46;;;;;;;;;;;25.10;44.50;;;;;;5055101;28;19919;-54
2023/06/14 06:10:11;;;;;;;;;;;25.10;44.50;;;;;;5062262;28;20058;-52
2023/06/14 06:12:37;;;;;;;;;;;25.10;44.50;;;;;;5061332;28;20396;-53
2023/06/14 06:15:03;;;;;;;;;;;25.10;44.80;;;;;;5066053;28;19962;-55
2023/06/14 06:17:28;;;;;;;;;;;25.20;44.60;;;;;;5060040;28;19949;-54
2023/06/14 06:19:53;;;;;;;;;;;25.20;44.40;;;;;;5062529;28;19916;-55
2023/06/14 06:22:19;;;;;;;;;;;25.10;44.30;;;;;;5096884;28;19952;-54
2023/06/14 06:24:45;;;;;;;;;;;25.10;44.40;;;;;;5061081;28;20372;-54
2023/06/14 06:27:12;;;;;;;;;;;25.10;44.30;;;;;;5059513;28;19917;-53
2023/06/14 06:29:37;;;;;;;;;;;25.10;44.40;;;;;;5062794;28;19917;-54
2023/06/14 06:32:03;;;;;;;;;;;25.10;44.40;;;;;;5070447;28;19917;-54
2023/06/14 06:34:28;;;;;;;;;;;25.10;44.20;;;;;;5060546;28;19920;-54
2023/06/14 06:36:55;;;;;;;;;;;25.20;44.20;;;;;;5058591;28;19979;-54
2023/06/14 06:39:20;;;;;;;;;;;25.20;44.10;;;;;;5061526;28;19936;-54
2023/06/14 06:41:46;;;;;;;;;;;25.30;44.20;;;;;;5070739;28;20373;-53
2023/06/14 06:44:12;;;;;;;;;;;25.20;43.90;;;;;;5066083;28;19941;-53
2023/06/14 06:46:41;;;;;;;;;;;25.20;43.70;;;;;;5100702;27;19912;-54
2023/06/14 06:49:06;;;;;;;;;;;25.10;43.70;;;;;;5061710;28;19917;-54
2023/06/14 06:51:32;;;;;;;;;;;25.20;43.80;;;;;;5057003;28;19912;-54
2023/06/14 06:53:57;;;;;;;;;;;25.20;43.50;;;;;;5061284;28;19920;-53
2023/06/14 06:56:24;;;;;;;;;;;25.20;43.40;;;;;;5067450;28;19921;-54
2023/06/14 06:58:52;;;;;;;;;;;25.20;43.50;;;;;;5066489;28;20419;-53
2023/06/14 07:01:19;;;;;;;;;;;25.20;43.50;;;;;;5061074;28;19913;-53
2023/06/14 07:03:45;;;;;;;;;;;25.30;43.40;;;;;;5066798;28;19913;-53
2023/06/14 07:06:10;;;;;;;;;;;25.20;43.20;;;;;;5065782;28;20369;-53
2023/06/14 07:08:38;;;;;;;;;;;25.10;43.10;;;;;;5060182;28;19924;-53
2023/06/14 07:11:04;;;;;;;;;;;25.20;43.10;;;;;;5063106;28;20308;-53
2023/06/14 07:13:30;;;;;;;;;;;25.20;43.50;;;;;;5060165;28;19916;-53
2023/06/14 07:15:57;;;;;;;;;;;25.20;43.10;;;;;;5061764;28;20415;-53
2023/06/14 07:18:22;;;;;;;;;;;25.30;43.10;;;;;;5060233;28;19955;-55
2023/06/14 07:20:48;;;;;;;;;;;25.30;43.00;;;;;;5056756;28;19945;-55
2023/06/14 07:23:13;;;;;;;;;;;25.30;42.70;;;;;;5062419;28;19923;-55
2023/06/14 07:25:39;;;;;;;;;;;25.30;43.00;;;;;;5060195;28;19913;-55
2023/06/14 07:28:05;;;;;;;;;;;25.20;42.90;;;;;;5067781;28;19966;-55
2023/06/14 07:30:31;;;;;;;;;;;25.10;42.70;;;;;;5070993;28;19959;-55
2023/06/14 07:32:56;;;;;;;;;;;25.10;42.90;;;;;;5055160;28;19930;-55
2023/06/14 07:35:22;;;;;;;;;;;25.10;42.80;;;;;;5057801;28;20415;-55
2023/06/14 07:37:47;;;;;;;;;;;25.10;42.90;;;;;;5059989;28;19962;-56
2023/06/14 07:40:13;;;;;;;;;;;25.10;42.50;;;;;;5098837;28;20003;-56
2023/06/14 07:42:38;;;;;;;;;;;25.10;42.40;;;;;;5066295;28;19916;-55
2023/06/14 07:45:04;;;;;;;;;;;25.10;42.40;;;;;;5070575;28;19963;-55
2023/06/14 07:47:30;;;;;;;;;;;25.10;42.50;;;;;;5065925;28;20278;-56
2023/06/14 07:49:55;;;;;;;;;;;25.00;42.40;;;;;;5068088;28;19916;-55
2023/06/14 07:52:20;;;;;;;;;;;25.10;42.40;;;;;;5092906;27;19970;-55
2023/06/14 07:54:46;;;;;;;;;;;25.20;42.30;;;;;;5069016;28;19916;-55
2023/06/14 07:57:11;;;;;;;;;;;25.20;42.20;;;;;;5069257;28;19921;-55
2023/06/14 07:59:37;;;;;;;;;;;25.10;42.10;;;;;;5063300;28;19916;-55
2023/06/14 08:02:02;;;;;;;;;;;25.20;42.20;;;;;;5096095;28;20423;-55
2023/06/14 08:04:28;;;;;;;;;;;25.20;42.10;;;;;;5059435;28;20253;-55
2023/06/14 08:06:53;;;;;;;;;;;25.20;42.10;;;;;;5067440;28;19916;-55
2023/06/14 08:09:19;;;;;;;;;;;25.20;42.00;;;;;;5055447;28;20293;-55
2023/06/14 08:11:44;;;;;;;;;;;25.10;42.10;;;;;;5054611;28;20296;-55
2023/06/14 08:14:10;;;;;;;;;;;25.10;42.20;;;;;;5063050;28;20396;-55
2023/06/14 08:16:35;;;;;;;;;;;25.20;42.10;;;;;;5060534;28;21624;-55
2023/06/14 08:19:01;;;;;;;;;;;25.20;42.20;;;;;;5059498;28;19917;-54
2023/06/14 08:21:28;;;;;;;;;;;25.20;42.30;;;;;;5056685;28;20426;-54
2023/06/14 08:23:54;;;;;;;;;;;25.20;42.20;;;;;;5058216;28;20527;-55
2023/06/14 08:26:20;;;;;;;;;;;25.20;42.20;;;;;;5057287;28;20012;-55
2023/06/14 08:28:46;;;;;;;;;;;25.30;42.30;;;;;;5084889;28;20460;-55
2023/06/14 08:31:12;;;;;;;;;;;25.30;42.20;;;;;;5054925;28;19920;-54
2023/06/14 08:33:38;;;;;;;;;;;25.30;42.10;;;;;;5065546;28;19920;-55
2023/06/14 08:36:04;;;;;;;;;;;25.20;42.00;;;;;;5065172;28;19918;-54
2023/06/14 08:38:30;;;;;;;;;;;25.20;42.10;;;;;;5059038;28;19939;-54
2023/06/14 08:40:56;;;;;;;;;;;25.20;42.00;;;;;;5062330;28;19970;-55
2023/06/14 08:43:22;;;;;;;;;;;25.20;42.10;;;;;;5059691;28;19963;-55
2023/06/14 08:45:48;;;;;;;;;;;25.10;42.20;;;;;;5061954;28;19944;-55
2023/06/14 08:48:17;;;;;;;;;;;25.10;42.10;;;;;;5056960;28;20006;-54
2023/06/14 08:50:42;;;;;;;;;;;25.10;42.00;;;;;;5061878;28;19923;-55
2023/06/14 08:53:10;;;;;;;;;;;25.10;42.00;;;;;;5057745;28;19995;-54
2023/06/14 08:55:38;;;;;;;;;;;25.10;42.10;;;;;;5059794;28;20018;-55
2023/06/14 08:58:04;;;;;;;;;;;25.10;41.90;;;;;;5067374;28;19908;-54
2023/06/14 09:00:30;;;;;;;;;;;25.10;41.90;;;;;;5061060;28;19916;-54
2023/06/14 09:02:57;;;;;;;;;;;25.20;41.70;;;;;;5058728;28;19917;-55
2023/06/14 09:05:23;;;;;;;;;;;25.10;41.60;;;;;;5062454;28;20288;-55
2023/06/14 09:07:50;;;;;;;;;;;25.20;41.60;;;;;;5060884;28;19920;-55
2023/06/14 09:10:15;;;;;;;;;;;25.20;41.40;;;;;;5062471;28;20356;-55
2023/06/14 09:12:41;;;;;;;;;;;25.10;41.30;;;;;;5061357;28;19912;-55
2023/06/14 09:15:08;;;;;;;;;;;25.20;41.60;;;;;;5062094;28;19917;-55
2023/06/14 09:17:37;;;;;;;;;;;25.20;41.50;;;;;;5065276;28;19917;-56
2023/06/14 09:20:05;;;;;;;;;;;25.30;41.20;;;;;;5057719;28;20390;-54
2023/06/14 09:22:31;;;;;;;;;;;25.40;41.30;;;;;;5063476;28;19967;-55
2023/06/14 09:24:57;;;;;;;;;;;25.40;41.10;;;;;;5062373;28;20485;-55
2023/06/14 09:27:22;;;;;;;;;;;25.40;41.00;;;;;;5066501;28;20288;-56
2023/06/14 09:29:48;;;;;;;;;;;25.40;40.90;;;;;;5068876;28;19920;-55
2023/06/14 09:32:13;;;;;;;;;;;25.40;40.80;;;;;;5064235;28;19931;-55
2023/06/14 09:34:38;;;;;;;;;;;25.40;40.80;;;;;;5061701;28;19926;-55
2023/06/14 09:37:04;;;;;;;;;;;25.40;40.80;;;;;;5095137;28;20385;-55
2023/06/14 09:39:30;;;;;;;;;;;25.40;40.70;;;;;;5059494;28;20277;-55
2023/06/14 09:41:55;;;;;;;;;;;25.50;40.60;;;;;;5066837;28;19912;-54
2023/06/14 09:44:21;;;;;;;;;;;25.50;40.40;;;;;;5061242;28;19921;-54
2023/06/14 09:46:47;;;;;;;;;;;25.60;40.50;;;;;;5057299;28;19913;-54
2023/06/14 09:49:12;;;;;;;;;;;25.50;40.50;;;;;;5060130;28;19916;-54
2023/06/14 09:51:44;;;;;;;;;;;25.60;40.70;;;;;;5053636;28;19912;-55
2023/06/14 09:54:12;;;;;;;;;;;25.60;40.70;;;;;;5068461;28;19966;-55
2023/06/14 09:56:37;;;;;;;;;;;25.60;41.40;;;;;;5043930;28;19952;-55
2023/06/14 09:59:09;;;;;;;;;;;25.60;40.90;;;;;;5056335;28;19993;-56
2023/06/14 10:01:35;;;;;;;;;;;25.60;40.80;;;;;;5062479;28;19939;-55
2023/06/14 10:04:06;;;;;;;;;;;25.60;40.90;;;;;;5056408;28;19979;-55
2023/06/14 10:06:32;;;;;;;;;;;25.60;40.90;;;;;;5056710;28;19921;-55
2023/06/14 10:08:59;;;;;;;;;;;25.60;41.00;;;;;;5070704;28;21650;-56
2023/06/14 10:11:28;;;;;;;;;;;25.60;41.20;;;;;;5093304;28;19913;-55
2023/06/14 10:13:56;;;;;;;;;;;25.70;41.20;;;;;;5063487;28;20043;-55
2023/06/14 10:16:30;;;;;;;;;;;25.70;41.00;;;;;;5066555;28;19916;-56
2023/06/14 10:19:05;;;;;;;;;;;25.60;41.10;;;;;;5100424;28;19995;-55
2023/06/14 10:21:33;;;;;;;;;;;25.60;41.10;;;;;;5070112;28;20015;-54
2023/06/14 10:24:00;;;;;;;;;;;25.70;41.20;;;;;;5062648;28;19920;-55
2023/06/14 10:26:26;;;;;;;;;;;25.90;40.90;;;;;;5095276;28;19951;-55
2023/06/14 10:29:01;;;;;;;;;;;26.00;40.80;;;;;;5063299;28;20375;-55
2023/06/14 10:31:39;;;;;;;;;;;26.10;40.70;;;;;;5066475;28;19913;-55
2023/06/14 10:34:04;;;;;;;;;;;26.00;40.70;;;;;;5066990;28;20768;-55
2023/06/14 10:36:36;;;;;;;;;;;25.90;40.80;;;;;;5075520;28;19941;-54
2023/06/14 10:39:06;;;;;;;;;;;25.90;40.90;;;;;;5103734;28;19912;-55
2023/06/14 10:41:33;;;;;;;;;;;26.00;40.80;;;;;;5101297;27;19912;-55
2023/06/14 10:44:30;;;;;;;;;;;26.00;40.90;;;;;;5104266;28;19924;-55
2023/06/14 10:46:57;;;;;;;;;;;25.90;40.80;;;;;;5062879;28;20317;-55
2023/06/14 10:49:44;;;;;;;;;;;26.00;41.00;;;;;;5067698;28;19913;-56
2023/06/14 10:52:19;;;;;;;;;;;26.00;40.70;;;;;;5069264;28;19916;-55
2023/06/14 10:55:09;;;;;;;;;;;26.00;40.50;;;;;;5063598;28;20339;-55
2023/06/14 10:57:35;;;;;;;;;;;26.10;40.40;;;;;;5065792;28;19958;-55
2023/06/14 11:00:01;;;;;;;;;;;26.20;40.30;;;;;;5073108;28;20011;-55
2023/06/14 11:02:34;;;;;;;;;;;26.10;40.10;;;;;;5097106;27;19908;-55
2023/06/14 11:05:01;;;;;;;;;;;26.10;40.00;;;;;;5062376;28;20296;-55
2023/06/14 11:07:35;;;;;;;;;;;26.10;39.80;;;;;;5062088;28;19917;-56
2023/06/14 11:10:04;;;;;;;;;;;26.10;39.80;;;;;;5067288;28;19944;-55
2023/06/14 11:12:29;;;;;;;;;;;26.10;39.80;;;;;;5067295;28;19916;-54
2023/06/14 11:14:55;;;;;;;;;;;26.00;40.00;;;;;;5088505;27;19923;-54
2023/06/14 11:17:20;;;;;;;;;;;25.90;40.20;;;;;;5066178;28;19920;-55
2023/06/14 11:19:46;;;;;;;;;;;25.90;40.30;;;;;;5058556;28;19916;-56
2023/06/14 11:22:11;;;;;;;;;;;25.90;40.30;;;;;;5092532;28;19920;-55
2023/06/14 11:24:37;;;;;;;;;;;25.80;40.40;;;;;;5067793;28;19913;-55
2023/06/14 11:27:02;;;;;;;;;;;25.70;40.40;;;;;;5056590;28;19969;-55
2023/06/14 11:29:28;;;;;;;;;;;25.90;40.40;;;;;;5063925;28;19909;-55
2023/06/14 11:31:54;;;;;;;;;;;26.00;40.00;;;;;;5066618;28;20386;-56
2023/06/14 11:34:20;;;;;;;;;;;26.20;39.80;;;;;;5058917;28;19921;-53
2023/06/14 11:36:47;;;;;;;;;;;26.30;39.70;;;;;;5088772;28;19927;-54
2023/06/14 11:39:13;;;;;;;;;;;26.30;39.90;;;;;;5065223;28;19927;-54
2023/06/14 11:41:39;;;;;;;;;;;26.40;39.70;;;;;;5062478;28;19917;-54
2023/06/14 11:44:05;;;;;;;;;;;26.30;39.80;;;;;;5092358;27;20296;-55
2023/06/14 11:46:31;;;;;;;;;;;26.20;39.90;;;;;;5065080;28;19921;-54
2023/06/14 11:48:56;;;;;;;;;;;26.10;40.00;;;;;;5083768;27;19917;-55
2023/06/14 11:51:22;;;;;;;;;;;26.00;40.20;;;;;;5052412;28;19927;-55
2023/06/14 11:53:47;;;;;;;;;;;26.00;40.10;;;;;;5088817;28;19924;-55
2023/06/14 11:56:13;;;;;;;;;;;26.10;40.30;;;;;;5055262;28;19955;-55
2023/06/14 11:58:38;;;;;;;;;;;26.10;40.10;;;;;;5066800;28;19928;-53
2023/06/14 12:01:04;;;;;;;;;;;26.10;40.20;;;;;;5063648;28;19921;-53
2023/06/14 12:03:30;;;;;;;;;;;26.10;40.10;;;;;;5071179;28;20454;-55
2023/06/14 12:06:05;;;;;;;;;;;26.00;40.30;;;;;;5067931;28;19916;-54
2023/06/14 12:08:40;;;;;;;;;;;26.00;40.10;;;;;;5060468;28;19977;-53
2023/06/14 12:11:06;;;;;;;;;;;26.00;40.10;;;;;;5058177;28;19970;-54
2023/06/14 12:13:31;;;;;;;;;;;26.10;40.10;;;;;;5058704;28;19931;-54
2023/06/14 12:15:57;;;;;;;;;;;26.20;40.10;;;;;;5069318;28;19913;-53
2023/06/14 12:18:34;;;;;;;;;;;26.20;39.90;;;;;;5069695;28;20008;-53
2023/06/14 12:21:02;;;;;;;;;;;26.00;40.00;;;;;;5060457;28;19948;-52
2023/06/14 12:23:47;;;;;;;;;;;26.10;40.30;;;;;;5065216;28;19913;-53
2023/06/14 12:26:13;;;;;;;;;;;26.00;40.30;;;;;;5069542;28;19923;-53
2023/06/14 12:28:39;;;;;;;;;;;26.10;40.40;;;;;;5075343;28;20006;-52
2023/06/14 12:31:05;;;;;;;;;;;26.20;40.20;;;;;;5067804;28;19943;-53
2023/06/14 12:33:31;;;;;;;;;;;26.30;40.10;;;;;;5099472;28;19920;-54
2023/06/14 12:35:57;;;;;;;;;;;26.40;40.10;;;;;;5075147;28;20404;-54
2023/06/14 12:38:24;;;;;;;;;;;26.30;40.10;;;;;;5055662;28;20008;-53
2023/06/14 12:40:49;;;;;;;;;;;26.20;40.10;;;;;;5069613;28;20341;-54
2023/06/14 12:43:14;;;;;;;;;;;26.20;40.20;;;;;;5066328;28;19921;-53
2023/06/14 12:45:40;;;;;;;;;;;26.10;40.30;;;;;;5062773;28;19912;-53
2023/06/14 12:48:05;;;;;;;;;;;26.10;40.30;;;;;;5067609;28;20289;-54
2023/06/14 12:50:31;;;;;;;;;;;26.20;40.20;;;;;;5058615;28;20308;-54
2023/06/14 12:52:56;;;;;;;;;;;26.20;40.30;;;;;;5066471;28;19917;-54
2023/06/14 12:55:22;;;;;;;;;;;26.30;40.00;;;;;;5062261;28;19924;-54
2023/06/14 12:57:49;;;;;;;;;;;26.40;39.50;;;;;;5060499;28;19913;-54
2023/06/14 13:00:15;;;;;;;;;;;26.40;39.30;;;;;;5054932;28;20373;-53
2023/06/14 13:02:40;;;;;;;;;;;26.40;39.40;;;;;;5065136;28;19924;-54
2023/06/14 13:05:06;;;;;;;;;;;26.50;39.40;;;;;;5091770;28;19947;-54
2023/06/14 13:07:32;;;;;;;;;;;26.60;39.40;;;;;;5058863;28;20024;-55
2023/06/14 13:09:57;;;;;;;;;;;26.80;39.00;;;;;;5057610;28;20004;-52
2023/06/14 13:12:23;;;;;;;;;;;26.80;38.70;;;;;;5055853;28;19920;-53
2023/06/14 13:14:48;;;;;;;;;;;26.70;38.70;;;;;;5058211;28;19920;-52
2023/06/14 13:17:14;;;;;;;;;;;26.70;38.70;;;;;;5099638;28;19961;-53
2023/06/14 13:19:41;;;;;;;;;;;26.60;38.60;;;;;;5066558;28;19912;-53
2023/06/14 13:22:07;;;;;;;;;;;26.50;38.80;;;;;;5088597;28;20292;-53
2023/06/14 13:24:33;;;;;;;;;;;26.30;39.10;;;;;;5074669;28;19927;-53
2023/06/14 13:26:58;;;;;;;;;;;26.30;39.10;;;;;;5059805;28;19916;-52
2023/06/14 13:29:24;;;;;;;;;;;26.50;39.20;;;;;;5089166;28;19916;-53
2023/06/14 13:31:49;;;;;;;;;;;26.60;39.10;;;;;;5062923;28;19913;-52
2023/06/14 13:34:15;;;;;;;;;;;26.70;38.70;;;;;;5050788;28;19916;-53
2023/06/14 13:36:40;;;;;;;;;;;26.80;38.60;;;;;;5057988;28;19919;-53
2023/06/14 13:39:06;;;;;;;;;;;26.80;38.20;;;;;;5071005;28;20409;-53
2023/06/14 13:41:34;;;;;;;;;;;26.90;38.20;;;;;;5070647;28;19909;-53
2023/06/14 13:43:59;;;;;;;;;;;27.00;38.00;;;;;;5062357;28;19921;-53
2023/06/14 13:46:25;;;;;;;;;;;27.10;37.90;;;;;;5069207;28;20005;-52
2023/06/14 13:48:50;;;;;;;;;;;26.90;38.00;;;;;;5059237;28;19913;-54
2023/06/14 13:51:17;;;;;;;;;;;26.80;38.20;;;;;;5044230;28;20295;-54
2023/06/14 13:53:45;;;;;;;;;;;26.70;38.40;;;;;;5098463;28;19920;-54
2023/06/14 13:56:11;;;;;;;;;;;26.60;38.60;;;;;;5059832;28;19996;-53
2023/06/14 13:58:37;;;;;;;;;;;26.50;38.50;;;;;;5064321;28;19912;-54
2023/06/14 14:01:02;;;;;;;;;;;26.60;38.60;;;;;;5064253;28;20384;-55
2023/06/14 14:03:28;;;;;;;;;;;26.70;38.70;;;;;;5096535;28;19916;-53
2023/06/14 14:05:53;;;;;;;;;;;26.80;38.20;;;;;;5059701;28;19966;-53
2023/06/14 14:08:19;;;;;;;;;;;26.90;38.20;;;;;;5047201;28;19916;-53
2023/06/14 14:10:45;;;;;;;;;;;26.90;37.90;;;;;;5066088;28;19919;-52
2023/06/14 14:13:12;;;;;;;;;;;27.00;37.80;;;;;;5068526;28;19974;-53